sensor_id;sensor_type;location;lat;lon;timestamp;pressure;altitude;pressure_sealevel;temperature;humidity
69574;BME280;62840;52.366;5.980;2024-02-04T00:00:05;102157.00;;;10.79;78.00
69574;BME280;62840;52.366;5.980;2024-02-04T00:02:32;102154.25;;;10.81;77.80
69574;BME280;62840;52.366;5.980;2024-02-04T00:04:58;102156.16;;;10.79;78.04
69574;BME280;62840;52.366;5.980;2024-02-04T00:07:24;102157.13;;;10.78;77.89
69574;BME280;62840;52.366;5.980;2024-02-04T00:09:50;102158.06;;;10.77;78.01
69574;BME280;62840;52.366;5.980;2024-02-04T00:12:19;102156.34;;;10.76;77.71
69574;BME280;62840;52.366;5.980;2024-02-04T00:14:45;102159.09;;;10.74;77.88
69574;BME280;62840;52.366;5.980;2024-02-04T00:17:11;102158.25;;;10.74;77.77
69574;BME280;62840;52.366;5.980;2024-02-04T00:19:37;102156.53;;;10.73;77.77
69574;BME280;62840;52.366;5.980;2024-02-04T00:22:05;102157.41;;;10.73;77.99
69574;BME280;62840;52.366;5.980;2024-02-04T00:24:31;102159.09;;;10.74;78.10
69574;BME280;62840;52.366;5.980;2024-02-04T00:26:57;102154.75;;;10.73;77.84
69574;BME280;62840;52.366;5.980;2024-02-04T00:29:26;102151.19;;;10.73;77.90
69574;BME280;62840;52.366;5.980;2024-02-04T00:31:51;102144.34;;;10.69;77.82
69574;BME280;62840;52.366;5.980;2024-02-04T00:34:17;102156.72;;;10.70;77.83
69574;BME280;62840;52.366;5.980;2024-02-04T00:36:43;102148.81;;;10.68;77.80
69574;BME280;62840;52.366;5.980;2024-02-04T00:39:09;102147.97;;;10.67;77.68
69574;BME280;62840;52.366;5.980;2024-02-04T00:41:35;102146.25;;;10.66;78.27
69574;BME280;62840;52.366;5.980;2024-02-04T00:44:02;102149.88;;;10.65;77.99
69574;BME280;62840;52.366;5.980;2024-02-04T00:46:30;102159.59;;;10.66;77.84
69574;BME280;62840;52.366;5.980;2024-02-04T00:48:56;102149.22;;;10.62;78.11
69574;BME280;62840;52.366;5.980;2024-02-04T00:51:22;102157.31;;;10.60;78.05
69574;BME280;62840;52.366;5.980;2024-02-04T00:53:48;102162.63;;;10.60;78.13
69574;BME280;62840;52.366;5.980;2024-02-04T00:56:17;102152.16;;;10.57;77.90
69574;BME280;62840;52.366;5.980;2024-02-04T00:58:43;102155.56;;;10.59;78.10
69574;BME280;62840;52.366;5.980;2024-02-04T01:01:09;102163.50;;;10.61;78.12
69574;BME280;62840;52.366;5.980;2024-02-04T01:03:37;102157.31;;;10.60;77.71
69574;BME280;62840;52.366;5.980;2024-02-04T01:06:06;102159.19;;;10.58;77.86
69574;BME280;62840;52.366;5.980;2024-02-04T01:08:32;102160.91;;;10.59;77.95
69574;BME280;62840;52.366;5.980;2024-02-04T01:10:57;102160.91;;;10.59;77.86
69574;BME280;62840;52.366;5.980;2024-02-04T01:13:23;102147.75;;;10.56;77.91
69574;BME280;62840;52.366;5.980;2024-02-04T01:15:49;102143.41;;;10.55;77.85
69574;BME280;62840;52.366;5.980;2024-02-04T01:18:15;102138.16;;;10.54;77.98
69574;BME280;62840;52.366;5.980;2024-02-04T01:20:44;102134.63;;;10.53;77.89
69574;BME280;62840;52.366;5.980;2024-02-04T01:23:10;102140.25;;;10.49;77.73
69574;BME280;62840;52.366;5.980;2024-02-04T01:25:41;102147.38;;;10.48;77.73
69574;BME280;62840;52.366;5.980;2024-02-04T01:28:07;102138.81;;;10.43;77.70
69574;BME280;62840;52.366;5.980;2024-02-04T01:30:36;102138.81;;;10.43;77.66
69574;BME280;62840;52.366;5.980;2024-02-04T01:33:02;102143.47;;;10.39;77.61
69574;BME280;62840;52.366;5.980;2024-02-04T01:35:28;102141.06;;;10.35;77.72
69574;BME280;62840;52.366;5.980;2024-02-04T01:37:59;102141.25;;;10.32;77.70
69574;BME280;62840;52.366;5.980;2024-02-04T01:40:24;102138.88;;;10.27;77.65
69574;BME280;62840;52.366;5.980;2024-02-04T01:42:50;102141.63;;;10.25;77.61
69574;BME280;62840;52.366;5.980;2024-02-04T01:45:19;102150.59;;;10.24;77.72
69574;BME280;62840;52.366;5.980;2024-02-04T01:47:45;102151.53;;;10.23;77.62
69574;BME280;62840;52.366;5.980;2024-02-04T01:50:11;102153.34;;;10.23;77.64
69574;BME280;62840;52.366;5.980;2024-02-04T01:52:39;102147.25;;;10.21;77.65
69574;BME280;62840;52.366;5.980;2024-02-04T01:55:11;102158.03;;;10.19;77.44
69574;BME280;62840;52.366;5.980;2024-02-04T01:57:37;102149.25;;;10.17;77.41
69574;BME280;62840;52.366;5.980;2024-02-04T02:00:08;102143.44;;;10.11;77.29
69574;BME280;62840;52.366;5.980;2024-02-04T02:02:40;102143.59;;;10.08;77.43
69574;BME280;62840;52.366;5.980;2024-02-04T02:05:06;102137.59;;;10.04;77.55
69574;BME280;62840;52.366;5.980;2024-02-04T02:07:36;102140.53;;;9.99;77.31
69574;BME280;62840;52.366;5.980;2024-02-04T02:10:02;102137.13;;;9.97;77.43
69574;BME280;62840;52.366;5.980;2024-02-04T02:12:35;102142.53;;;9.96;77.42
69574;BME280;62840;52.366;5.980;2024-02-04T02:15:10;102156.97;;;9.92;77.34
69574;BME280;62840;52.366;5.980;2024-02-04T02:17:45;102161.72;;;9.87;77.43
69574;BME280;62840;52.366;5.980;2024-02-04T02:20:20;102153.16;;;9.81;77.34
69574;BME280;62840;52.366;5.980;2024-02-04T02:23:03;102151.59;;;9.77;77.25
69574;BME280;62840;52.366;5.980;2024-02-04T02:25:45;102148.16;;;9.75;77.44
69574;BME280;62840;52.366;5.980;2024-02-04T02:28:12;102146.47;;;9.74;77.46
69574;BME280;62840;52.366;5.980;2024-02-04T02:30:41;102145.50;;;9.75;77.46
69574;BME280;62840;52.366;5.980;2024-02-04T02:33:07;102128.75;;;9.73;77.21
69574;BME280;62840;52.366;5.980;2024-02-04T02:35:33;102128.94;;;9.70;77.37
69574;BME280;62840;52.366;5.980;2024-02-04T02:38:07;102128.16;;;9.68;77.39
69574;BME280;62840;52.366;5.980;2024-02-04T02:40:45;102123.97;;;9.64;77.52
69574;BME280;62840;52.366;5.980;2024-02-04T02:43:15;102115.19;;;9.62;77.40
69574;BME280;62840;52.366;5.980;2024-02-04T02:45:42;102118.81;;;9.61;77.42
69574;BME280;62840;52.366;5.980;2024-02-04T02:48:10;102116.25;;;9.59;77.24
69574;BME280;62840;52.366;5.980;2024-02-04T02:50:37;102123.47;;;9.57;77.38
69574;BME280;62840;52.366;5.980;2024-02-04T02:53:03;102125.34;;;9.55;76.95
69574;BME280;62840;52.366;5.980;2024-02-04T02:55:30;102124.69;;;9.52;77.31
69574;BME280;62840;52.366;5.980;2024-02-04T02:57:58;102138.94;;;9.51;77.29
69574;BME280;62840;52.366;5.980;2024-02-04T03:00:24;102124.06;;;9.47;77.28
69574;BME280;62840;52.366;5.980;2024-02-04T03:02:50;102127.88;;;9.43;77.34
69574;BME280;62840;52.366;5.980;2024-02-04T03:05:19;102127.09;;;9.40;77.40
69574;BME280;62840;52.366;5.980;2024-02-04T03:07:45;102130.03;;;9.36;77.33
69574;BME280;62840;52.366;5.980;2024-02-04T03:10:11;102122.31;;;9.31;77.29
69574;BME280;62840;52.366;5.980;2024-02-04T03:12:40;102119.53;;;9.33;77.20
69574;BME280;62840;52.366;5.980;2024-02-04T03:15:09;102125.91;;;9.30;77.19
69574;BME280;62840;52.366;5.980;2024-02-04T03:17:34;102119.75;;;9.28;77.51
69574;BME280;62840;52.366;5.980;2024-02-04T03:20:00;102133.06;;;9.28;77.30
69574;BME280;62840;52.366;5.980;2024-02-04T03:22:26;102139.44;;;9.26;77.11
69574;BME280;62840;52.366;5.980;2024-02-04T03:24:52;102133.25;;;9.25;77.30
69574;BME280;62840;52.366;5.980;2024-02-04T03:27:18;102127.94;;;9.25;77.23
69574;BME280;62840;52.366;5.980;2024-02-04T03:29:45;102121.84;;;9.23;76.92
69574;BME280;62840;52.366;5.980;2024-02-04T03:32:17;102141.50;;;9.20;77.16
69574;BME280;62840;52.366;5.980;2024-02-04T03:34:43;102129.31;;;9.16;77.19
69574;BME280;62840;52.366;5.980;2024-02-04T03:37:09;102127.50;;;9.17;77.18
69574;BME280;62840;52.366;5.980;2024-02-04T03:39:35;102135.66;;;9.14;77.33
69574;BME280;62840;52.366;5.980;2024-02-04T03:42:02;102148.19;;;9.12;77.12
69574;BME280;62840;52.366;5.980;2024-02-04T03:44:29;102142.09;;;9.10;77.14
69574;BME280;62840;52.366;5.980;2024-02-04T03:46:55;102135.94;;;9.09;77.09
69574;BME280;62840;52.366;5.980;2024-02-04T03:49:24;102137.88;;;9.06;76.81
69574;BME280;62840;52.366;5.980;2024-02-04T03:51:50;102139.78;;;9.04;77.01
69574;BME280;62840;52.366;5.980;2024-02-04T03:54:16;102135.56;;;8.99;77.05
69574;BME280;62840;52.366;5.980;2024-02-04T03:56:42;102133.94;;;8.97;76.85
69574;BME280;62840;52.366;5.980;2024-02-04T03:59:08;102142.00;;;8.95;76.94
69574;BME280;62840;52.366;5.980;2024-02-04T04:01:34;102134.97;;;8.94;76.96
69574;BME280;62840;52.366;5.980;2024-02-04T04:04:00;102124.50;;;8.91;76.98
69574;BME280;62840;52.366;5.980;2024-02-04T04:06:28;102138.72;;;8.90;76.89
69574;BME280;62840;52.366;5.980;2024-02-04T04:08:54;102141.50;;;8.89;77.01
69574;BME280;62840;52.366;5.980;2024-02-04T04:11:20;102133.75;;;8.84;77.05
69574;BME280;62840;52.366;5.980;2024-02-04T04:13:46;102125.00;;;8.82;77.02
69574;BME280;62840;52.366;5.980;2024-02-04T04:16:13;102110.16;;;8.78;77.26
69574;BME280;62840;52.366;5.980;2024-02-04T04:18:39;102096.00;;;8.77;76.93
69574;BME280;62840;52.366;5.980;2024-02-04T04:21:05;102114.69;;;8.76;77.11
69574;BME280;62840;52.366;5.980;2024-02-04T04:23:33;102107.66;;;8.75;77.04
69574;BME280;62840;52.366;5.980;2024-02-04T04:25:59;102103.53;;;8.69;76.92
69574;BME280;62840;52.366;5.980;2024-02-04T04:28:25;102109.69;;;8.70;77.08
69574;BME280;62840;52.366;5.980;2024-02-04T04:30:51;102101.13;;;8.65;77.26
69574;BME280;62840;52.366;5.980;2024-02-04T04:33:19;102109.09;;;8.65;76.90
69574;BME280;62840;52.366;5.980;2024-02-04T04:35:45;102106.63;;;8.62;76.98
69574;BME280;62840;52.366;5.980;2024-02-04T04:38:13;102114.50;;;8.63;77.26
69574;BME280;62840;52.366;5.980;2024-02-04T04:40:42;102115.38;;;8.64;76.98
69574;BME280;62840;52.366;5.980;2024-02-04T04:43:08;102096.84;;;8.62;77.27
69574;BME280;62840;52.366;5.980;2024-02-04T04:45:34;102075.47;;;8.64;77.05
69574;BME280;62840;52.366;5.980;2024-02-04T04:48:00;102089.63;;;8.64;76.99
69574;BME280;62840;52.366;5.980;2024-02-04T04:50:27;102082.50;;;8.65;76.99
69574;BME280;62840;52.366;5.980;2024-02-04T04:52:54;102086.13;;;8.64;77.03
69574;BME280;62840;52.366;5.980;2024-02-04T04:55:20;102088.66;;;8.65;77.05
69574;BME280;62840;52.366;5.980;2024-02-04T04:57:49;102071.94;;;8.63;77.03
69574;BME280;62840;52.366;5.980;2024-02-04T05:00:16;102069.22;;;8.65;77.03
69574;BME280;62840;52.366;5.980;2024-02-04T05:02:42;102083.28;;;8.67;76.90
69574;BME280;62840;52.366;5.980;2024-02-04T05:05:09;102075.22;;;8.68;77.03
69574;BME280;62840;52.366;5.980;2024-02-04T05:07:36;102066.47;;;8.66;76.96
69574;BME280;62840;52.366;5.980;2024-02-04T05:10:02;102076.22;;;8.66;77.03
69574;BME280;62840;52.366;5.980;2024-02-04T05:12:29;102086.88;;;8.66;76.95
69574;BME280;62840;52.366;5.980;2024-02-04T05:14:58;102085.16;;;8.65;76.99
69574;BME280;62840;52.366;5.980;2024-02-04T05:17:24;102072.81;;;8.64;76.77
69574;BME280;62840;52.366;5.980;2024-02-04T05:19:50;102070.91;;;8.66;76.80
69574;BME280;62840;52.366;5.980;2024-02-04T05:22:16;102079.84;;;8.65;76.83
69574;BME280;62840;52.366;5.980;2024-02-04T05:24:41;102088.59;;;8.67;77.01
69574;BME280;62840;52.366;5.980;2024-02-04T05:27:07;102089.44;;;8.67;76.78
69574;BME280;62840;52.366;5.980;2024-02-04T05:29:33;102093.75;;;8.70;76.75
69574;BME280;62840;52.366;5.980;2024-02-04T05:32:02;102090.41;;;8.66;76.59
69574;BME280;62840;52.366;5.980;2024-02-04T05:34:29;102108.13;;;8.66;76.80
69574;BME280;62840;52.366;5.980;2024-02-04T05:36:55;102091.50;;;8.62;76.59
69574;BME280;62840;52.366;5.980;2024-02-04T05:39:21;102090.66;;;8.62;76.30
69574;BME280;62840;52.366;5.980;2024-02-04T05:41:47;102088.06;;;8.60;76.15
69574;BME280;62840;52.366;5.980;2024-02-04T05:44:13;102065.94;;;8.59;76.09
69574;BME280;62840;52.366;5.980;2024-02-04T05:46:42;102055.47;;;8.56;75.99
69574;BME280;62840;52.366;5.980;2024-02-04T05:49:18;102056.41;;;8.55;76.25
69574;BME280;62840;52.366;5.980;2024-02-04T05:51:48;102057.34;;;8.54;76.38
69574;BME280;62840;52.366;5.980;2024-02-04T05:54:14;102051.25;;;8.52;76.07
69574;BME280;62840;52.366;5.980;2024-02-04T05:56:40;102046.09;;;8.49;76.07
69574;BME280;62840;52.366;5.980;2024-02-04T05:59:25;102054.25;;;8.46;75.93
69574;BME280;62840;52.366;5.980;2024-02-04T06:01:56;102062.25;;;8.46;76.09
69574;BME280;62840;52.366;5.980;2024-02-04T06:04:29;102059.72;;;8.43;76.18
69574;BME280;62840;52.366;5.980;2024-02-04T06:07:06;102075.69;;;8.43;76.06
69574;BME280;62840;52.366;5.980;2024-02-04T06:09:39;102063.34;;;8.42;76.16
69574;BME280;62840;52.366;5.980;2024-02-04T06:12:06;102066.06;;;8.41;75.76
69574;BME280;62840;52.366;5.980;2024-02-04T06:14:36;102068.84;;;8.39;75.86
69574;BME280;62840;52.366;5.980;2024-02-04T06:17:11;102067.28;;;8.35;75.84
69574;BME280;62840;52.366;5.980;2024-02-04T06:20:52;102069.16;;;8.33;75.89
69574;BME280;62840;52.366;5.980;2024-02-04T06:23:12;102067.41;;;8.32;75.84
69574;BME280;62840;52.366;5.980;2024-02-04T06:25:46;102046.94;;;8.34;75.65
69574;BME280;62840;52.366;5.980;2024-02-04T06:28:21;102043.50;;;8.32;75.92
69574;BME280;62840;52.366;5.980;2024-02-04T06:30:55;102043.59;;;8.30;75.64
69574;BME280;62840;52.366;5.980;2024-02-04T06:33:28;102041.00;;;8.29;75.69
69574;BME280;62840;52.366;5.980;2024-02-04T06:36:10;102042.91;;;8.27;75.67
69574;BME280;62840;52.366;5.980;2024-02-04T06:38:51;102043.75;;;8.27;75.82
69574;BME280;62840;52.366;5.980;2024-02-04T06:41:35;102037.59;;;8.27;75.81
69574;BME280;62840;52.366;5.980;2024-02-04T06:51:02;102034.84;;;8.28;75.73
69574;BME280;62840;52.366;5.980;2024-02-04T06:53:44;102049.94;;;8.28;75.72
69574;BME280;62840;52.366;5.980;2024-02-04T06:56:44;102049.94;;;8.28;75.79
69574;BME280;62840;52.366;5.980;2024-02-04T06:59:30;102044.78;;;8.25;75.70
69574;BME280;62840;52.366;5.980;2024-02-04T07:04:54;102034.00;;;8.28;75.83
69574;BME280;62840;52.366;5.980;2024-02-04T07:07:50;102035.69;;;8.29;75.96
69574;BME280;62840;52.366;5.980;2024-02-04T07:10:53;102023.38;;;8.28;75.75
69574;BME280;62840;52.366;5.980;2024-02-04T07:13:29;102029.34;;;8.31;75.94
69574;BME280;62840;52.366;5.980;2024-02-04T07:15:55;102026.78;;;8.30;76.03
69574;BME280;62840;52.366;5.980;2024-02-04T07:21:50;102013.59;;;8.28;76.01
69574;BME280;62840;52.366;5.980;2024-02-04T07:27:33;102028.50;;;8.31;76.09
69574;BME280;62840;52.366;5.980;2024-02-04T07:30:13;102022.41;;;8.29;76.23
69574;BME280;62840;52.366;5.980;2024-02-04T07:32:54;102016.91;;;8.32;76.59
69574;BME280;62840;52.366;5.980;2024-02-04T07:35:21;102019.44;;;8.35;76.40
69574;BME280;62840;52.366;5.980;2024-02-04T07:37:52;102022.88;;;8.37;76.30
69574;BME280;62840;52.366;5.980;2024-02-04T07:40:40;102010.34;;;8.39;76.28
69574;BME280;62840;52.366;5.980;2024-02-04T07:43:06;102017.19;;;8.43;76.38
69574;BME280;62840;52.366;5.980;2024-02-04T07:49:18;102022.50;;;8.43;76.49
69574;BME280;62840;52.366;5.980;2024-02-04T07:54:27;102006.41;;;8.46;76.42
69574;BME280;62840;52.366;5.980;2024-02-04T07:57:22;102018.59;;;8.50;76.07
69574;BME280;62840;52.366;5.980;2024-02-04T07:59:50;102022.00;;;8.52;76.54
69574;BME280;62840;52.366;5.980;2024-02-04T08:02:17;102009.47;;;8.54;76.60
69574;BME280;62840;52.366;5.980;2024-02-04T08:04:44;102014.66;;;8.57;76.51
69574;BME280;62840;52.366;5.980;2024-02-04T08:07:10;102011.03;;;8.58;76.68
69574;BME280;62840;52.366;5.980;2024-02-04T08:09:36;101998.69;;;8.57;76.69
69574;BME280;62840;52.366;5.980;2024-02-04T08:12:06;102002.13;;;8.59;76.04
69574;BME280;62840;52.366;5.980;2024-02-04T08:14:35;102014.31;;;8.64;76.13
69574;BME280;62840;52.366;5.980;2024-02-04T08:17:08;101994.75;;;8.65;76.21
69574;BME280;62840;52.366;5.980;2024-02-04T08:19:34;102010.53;;;8.68;76.04
69574;BME280;62840;52.366;5.980;2024-02-04T08:22:03;101999.72;;;8.71;75.74
69574;BME280;62840;52.366;5.980;2024-02-04T08:24:30;101996.88;;;8.74;76.00
69574;BME280;62840;52.366;5.980;2024-02-04T08:27:01;102002.28;;;8.72;75.78
69574;BME280;62840;52.366;5.980;2024-02-04T08:29:29;101994.03;;;8.77;75.93
69574;BME280;62840;52.366;5.980;2024-02-04T08:31:58;101993.88;;;8.80;75.73
69574;BME280;62840;52.366;5.980;2024-02-04T08:34:24;101992.00;;;8.82;75.73
69574;BME280;62840;52.366;5.980;2024-02-04T08:36:50;101989.22;;;8.84;75.91
69574;BME280;62840;52.366;5.980;2024-02-04T08:39:16;101988.38;;;8.83;76.02
69574;BME280;62840;52.366;5.980;2024-02-04T08:41:42;101988.22;;;8.86;75.85
69574;BME280;62840;52.366;5.980;2024-02-04T08:44:08;101970.34;;;8.88;75.94
69574;BME280;62840;52.366;5.980;2024-02-04T08:46:36;101977.41;;;8.89;76.07
69574;BME280;62840;52.366;5.980;2024-02-04T08:49:05;101975.50;;;8.91;75.91
69574;BME280;62840;52.366;5.980;2024-02-04T08:51:31;101971.72;;;8.95;76.00
69574;BME280;62840;52.366;5.980;2024-02-04T08:53:57;101992.81;;;8.98;76.11
69574;BME280;62840;52.366;5.980;2024-02-04T08:56:23;101985.44;;;9.04;76.00
69574;BME280;62840;52.366;5.980;2024-02-04T08:58:49;101984.31;;;9.08;76.16
69574;BME280;62840;52.366;5.980;2024-02-04T09:01:15;101990.41;;;9.10;76.07
69574;BME280;62840;52.366;5.980;2024-02-04T09:03:49;101971.50;;;9.14;76.22
69574;BME280;62840;52.366;5.980;2024-02-04T09:06:20;101978.53;;;9.15;76.31
69574;BME280;62840;52.366;5.980;2024-02-04T09:08:48;101993.31;;;9.21;76.32
69574;BME280;62840;52.366;5.980;2024-02-04T09:11:17;101986.09;;;9.23;76.22
69574;BME280;62840;52.366;5.980;2024-02-04T09:13:43;101989.31;;;9.28;76.26
69574;BME280;62840;52.366;5.980;2024-02-04T09:16:09;101989.19;;;9.31;76.47
69574;BME280;62840;52.366;5.980;2024-02-04T09:18:36;101982.84;;;9.34;76.38
69574;BME280;62840;52.366;5.980;2024-02-04T09:21:02;101978.16;;;9.37;76.37
69574;BME280;62840;52.366;5.980;2024-02-04T09:23:39;101988.44;;;9.44;76.49
69574;BME280;62840;52.366;5.980;2024-02-04T09:26:05;101981.22;;;9.46;76.37
69574;BME280;62840;52.366;5.980;2024-02-04T09:28:32;101988.94;;;9.50;76.54
69574;BME280;62840;52.366;5.980;2024-02-04T09:31:00;102000.28;;;9.54;76.45
69574;BME280;62840;52.366;5.980;2024-02-04T09:33:30;101985.03;;;9.56;76.51
69574;BME280;62840;52.366;5.980;2024-02-04T09:35:59;101976.88;;;9.59;76.55
69574;BME280;62840;52.366;5.980;2024-02-04T09:38:29;101977.47;;;9.64;76.49
69574;BME280;62840;52.366;5.980;2024-02-04T09:40:57;101973.94;;;9.63;76.42
69574;BME280;62840;52.366;5.980;2024-02-04T09:43:26;101986.22;;;9.66;76.25
69574;BME280;62840;52.366;5.980;2024-02-04T09:46:00;101982.41;;;9.70;76.47
69574;BME280;62840;52.366;5.980;2024-02-04T09:48:30;101978.78;;;9.71;76.38
69574;BME280;62840;52.366;5.980;2024-02-04T09:50:57;101984.72;;;9.76;76.49
69574;BME280;62840;52.366;5.980;2024-02-04T09:53:31;101975.56;;;9.80;76.59
69574;BME280;62840;52.366;5.980;2024-02-04T09:56:08;101971.59;;;9.88;76.33
69574;BME280;62840;52.366;5.980;2024-02-04T09:58:36;101970.63;;;9.89;76.21
69574;BME280;62840;52.366;5.980;2024-02-04T10:04:27;101975.59;;;9.95;76.35
69574;BME280;62840;52.366;5.980;2024-02-04T10:06:53;101976.34;;;9.97;76.21
69574;BME280;62840;52.366;5.980;2024-02-04T10:09:42;101965.69;;;9.97;76.23
69574;BME280;62840;52.366;5.980;2024-02-04T10:12:10;101977.00;;;10.00;76.26
69574;BME280;62840;52.366;5.980;2024-02-04T10:14:42;101977.69;;;10.04;76.27
69574;BME280;62840;52.366;5.980;2024-02-04T10:17:09;101977.59;;;10.06;76.28
69574;BME280;62840;52.366;5.980;2024-02-04T10:19:35;101971.31;;;10.07;76.07
69574;BME280;62840;52.366;5.980;2024-02-04T10:22:01;101973.88;;;10.08;76.24
69574;BME280;62840;52.366;5.980;2024-02-04T10:24:37;101961.31;;;10.10;76.24
69574;BME280;62840;52.366;5.980;2024-02-04T10:27:07;101957.78;;;10.10;76.34
69574;BME280;62840;52.366;5.980;2024-02-04T10:32:23;101962.03;;;10.12;76.16
69574;BME280;62840;52.366;5.980;2024-02-04T10:34:51;101973.31;;;10.17;76.42
69574;BME280;62840;52.366;5.980;2024-02-04T10:37:20;101983.97;;;10.17;76.22
69574;BME280;62840;52.366;5.980;2024-02-04T10:39:52;101979.28;;;10.21;76.27
69574;BME280;62840;52.366;5.980;2024-02-04T10:42:24;101983.56;;;10.23;76.42
69574;BME280;62840;52.366;5.980;2024-02-04T10:44:59;101971.00;;;10.25;76.14
69574;BME280;62840;52.366;5.980;2024-02-04T10:47:32;101978.06;;;10.27;76.20
69574;BME280;62840;52.366;5.980;2024-02-04T10:50:06;101967.38;;;10.27;76.32
69574;BME280;62840;52.366;5.980;2024-02-04T10:52:36;101991.94;;;10.32;76.20
69574;BME280;62840;52.366;5.980;2024-02-04T10:55:33;101964.34;;;10.33;76.00
69574;BME280;62840;52.366;5.980;2024-02-04T10:58:47;101979.38;;;10.34;76.00
69574;BME280;62840;52.366;5.980;2024-02-04T11:01:08;101980.13;;;10.36;75.87
69574;BME280;62840;52.366;5.980;2024-02-04T11:03:50;101982.78;;;10.36;75.96
69574;BME280;62840;52.366;5.980;2024-02-04T11:06:53;101980.13;;;10.36;75.91
69574;BME280;62840;52.366;5.980;2024-02-04T11:09:29;101970.41;;;10.35;75.61
69574;BME280;62840;52.366;5.980;2024-02-04T11:12:23;101977.25;;;10.39;75.55
69574;BME280;62840;52.366;5.980;2024-02-04T11:21:50;101967.66;;;10.36;75.46
69574;BME280;62840;52.366;5.980;2024-02-04T11:24:49;101977.25;;;10.39;75.33
69574;BME280;62840;52.366;5.980;2024-02-04T11:27:57;101969.25;;;10.39;75.22
69574;BME280;62840;52.366;5.980;2024-02-04T11:30:23;101961.94;;;10.42;75.26
69574;BME280;62840;52.366;5.980;2024-02-04T11:32:57;101964.50;;;10.44;74.90
69574;BME280;62840;52.366;5.980;2024-02-04T11:35:25;101966.22;;;10.45;75.08
69574;BME280;62840;52.366;5.980;2024-02-04T11:37:55;101953.72;;;10.45;74.81
69574;BME280;62840;52.366;5.980;2024-02-04T11:43:37;101957.81;;;10.51;75.02
69574;BME280;62840;52.366;5.980;2024-02-04T11:46:33;101943.50;;;10.52;75.00
69574;BME280;62840;52.366;5.980;2024-02-04T11:49:03;101946.94;;;10.54;75.20
69574;BME280;62840;52.366;5.980;2024-02-04T11:51:29;101950.47;;;10.55;74.75
69574;BME280;62840;52.366;5.980;2024-02-04T11:54:25;101943.97;;;10.59;74.66
69574;BME280;62840;52.366;5.980;2024-02-04T11:56:54;101931.47;;;10.59;74.70
69574;BME280;62840;52.366;5.980;2024-02-04T11:59:37;101931.47;;;10.59;74.68
69574;BME280;62840;52.366;5.980;2024-02-04T12:02:21;101927.88;;;10.60;74.63
69574;BME280;62840;52.366;5.980;2024-02-04T12:04:55;101926.50;;;10.67;74.74
69574;BME280;62840;52.366;5.980;2024-02-04T12:07:24;101927.06;;;10.73;75.13
69574;BME280;62840;52.366;5.980;2024-02-04T12:10:01;101926.88;;;10.76;74.88
69574;BME280;62840;52.366;5.980;2024-02-04T12:12:29;101904.38;;;10.80;74.83
69574;BME280;62840;52.366;5.980;2024-02-04T12:14:55;101905.84;;;10.84;74.96
69574;BME280;62840;52.366;5.980;2024-02-04T12:17:39;101904.41;;;10.93;74.85
69574;BME280;62840;52.366;5.980;2024-02-04T12:20:17;101894.09;;;11.01;74.88
69574;BME280;62840;52.366;5.980;2024-02-04T12:26:32;101900.94;;;11.18;74.64
69574;BME280;62840;52.366;5.980;2024-02-04T12:29:01;101894.66;;;11.19;74.04
69574;BME280;62840;52.366;5.980;2024-02-04T12:31:29;101915.25;;;11.17;74.46
69574;BME280;62840;52.366;5.980;2024-02-04T12:34:37;101901.69;;;11.20;74.42
69574;BME280;62840;52.366;5.980;2024-02-04T12:37:16;101906.94;;;11.21;74.20
69574;BME280;62840;52.366;5.980;2024-02-04T12:39:45;101916.78;;;11.21;73.99
69574;BME280;62840;52.366;5.980;2024-02-04T12:42:23;101905.22;;;11.20;74.16
69574;BME280;62840;52.366;5.980;2024-02-04T12:44:51;101905.13;;;11.22;74.23
69574;BME280;62840;52.366;5.980;2024-02-04T12:47:55;101895.41;;;11.21;74.32
69574;BME280;62840;52.366;5.980;2024-02-04T12:50:29;101881.06;;;11.22;74.19
69574;BME280;62840;52.366;5.980;2024-02-04T12:53:08;101893.50;;;11.23;74.26
69574;BME280;62840;52.366;5.980;2024-02-04T12:55:46;101884.59;;;11.22;74.17
69574;BME280;62840;52.366;5.980;2024-02-04T12:58:23;101878.00;;;11.28;74.19
69574;BME280;62840;52.366;5.980;2024-02-04T13:01:00;101881.59;;;11.27;74.29
69574;BME280;62840;52.366;5.980;2024-02-04T13:03:40;101892.28;;;11.27;74.22
69574;BME280;62840;52.366;5.980;2024-02-04T13:06:30;101893.50;;;11.23;74.21
69574;BME280;62840;52.366;5.980;2024-02-04T13:09:01;101905.13;;;11.22;74.14
69574;BME280;62840;52.366;5.980;2024-02-04T13:11:39;101907.03;;;11.20;73.98
69574;BME280;62840;52.366;5.980;2024-02-04T13:14:17;101900.94;;;11.18;74.25
69574;BME280;62840;52.366;5.980;2024-02-04T13:16:59;101894.84;;;11.16;74.04
69574;BME280;62840;52.366;5.980;2024-02-04T13:19:35;101895.81;;;11.15;74.01
69574;BME280;62840;52.366;5.980;2024-02-04T13:24:51;101891.31;;;11.15;74.10
69574;BME280;62840;52.366;5.980;2024-02-04T13:33:35;101900.50;;;11.11;73.81
69574;BME280;62840;52.366;5.980;2024-02-04T13:36:03;101903.28;;;11.10;73.77
69574;BME280;62840;52.366;5.980;2024-02-04T13:38:29;101899.66;;;11.11;73.64
69574;BME280;62840;52.366;5.980;2024-02-04T13:40:55;101893.56;;;11.08;73.59
69574;BME280;62840;52.366;5.980;2024-02-04T13:43:21;101876.78;;;11.06;73.76
69574;BME280;62840;52.366;5.980;2024-02-04T13:45:47;101870.69;;;11.04;73.78
69574;BME280;62840;52.366;5.980;2024-02-04T13:48:13;101869.97;;;11.02;73.99
69574;BME280;62840;52.366;5.980;2024-02-04T13:50:41;101876.25;;;11.01;74.16
69574;BME280;62840;52.366;5.980;2024-02-04T13:53:07;101871.22;;;10.97;74.30
69574;BME280;62840;52.366;5.980;2024-02-04T13:55:33;101861.84;;;10.91;74.44
69574;BME280;62840;52.366;5.980;2024-02-04T13:57:59;101867.38;;;10.88;74.57
69574;BME280;62840;52.366;5.980;2024-02-04T14:00:24;101879.91;;;10.86;74.94
69574;BME280;62840;52.366;5.980;2024-02-04T14:02:50;101874.81;;;10.83;74.66
69574;BME280;62840;52.366;5.980;2024-02-04T14:05:16;101876.72;;;10.81;75.00